Time;durP1;ratioP1;P1;durP2;ratioP2;P2;SDS_P1;SDS_P2;PMS_P1;PMS_P2;Temp;Humidity;BMP_temperature;BMP_pressure;BME280_temperature;BME280_humidity;BME280_pressure;Samples;Min_cycle;Max_cycle;Signal;HPM_P1;HPM_P2
2022/12/26 00:01:42;;;;;;;11.88;11.48;;;8.90;99.90;;;;;;5012079;28;20049;-74
2022/12/26 00:04:07;;;;;;;13.25;12.75;;;8.90;99.90;;;;;;5021112;28;20048;-74
2022/12/26 00:06:33;;;;;;;11.32;10.93;;;9.00;99.90;;;;;;5025498;28;20026;-74
2022/12/26 00:09:01;;;;;;;11.98;11.57;;;9.10;99.90;;;;;;5011823;28;20105;-74
2022/12/26 00:11:27;;;;;;;11.57;11.18;;;9.00;99.90;;;;;;5025091;28;20476;-74
2022/12/26 00:13:58;;;;;;;11.07;10.68;;;9.00;99.90;;;;;;5022572;28;20052;-74
2022/12/26 00:16:25;;;;;;;10.20;9.80;;;9.00;99.90;;;;;;5018316;28;20036;-74
2022/12/26 00:18:51;;;;;;;12.32;11.93;;;9.10;99.90;;;;;;5019010;28;20030;-74
2022/12/26 00:21:17;;;;;;;15.30;14.60;;;9.10;99.90;;;;;;5025190;28;20037;-74
2022/12/26 00:23:43;;;;;;;11.60;11.20;;;9.20;99.90;;;;;;5024299;28;20372;-74
2022/12/26 00:26:16;;;;;;;11.63;11.23;;;9.20;99.90;;;;;;5031634;28;20049;-74
2022/12/26 00:28:42;;;;;;;11.30;10.90;;;9.10;99.90;;;;;;5017762;28;20117;-74
2022/12/26 00:31:14;;;;;;;10.98;10.57;;;9.10;99.90;;;;;;5034088;28;20506;-74
2022/12/26 00:33:39;;;;;;;10.80;10.40;;;9.00;99.90;;;;;;5033578;28;20454;-74
2022/12/26 00:36:08;;;;;;;10.10;9.73;;;9.10;99.90;;;;;;5016964;28;20057;-74
2022/12/26 00:38:35;;;;;;;9.85;9.55;;;9.10;99.90;;;;;;5032617;28;20082;-74
2022/12/26 00:41:01;;;;;;;9.38;9.05;;;9.10;99.90;;;;;;5035460;28;20029;-74
2022/12/26 00:43:26;;;;;;;8.75;8.45;;;9.10;99.90;;;;;;5022155;28;20037;-75
2022/12/26 00:45:52;;;;;;;9.82;9.43;;;9.10;99.90;;;;;;5026440;28;20029;-75
2022/12/26 00:48:17;;;;;;;9.50;9.20;;;9.20;99.90;;;;;;5017817;28;20049;-76
2022/12/26 00:50:43;;;;;;;9.25;8.95;;;9.30;99.90;;;;;;5026387;28;20032;-75
2022/12/26 00:53:09;;;;;;;8.80;8.50;;;9.10;99.90;;;;;;5028800;28;20037;-75
2022/12/26 00:55:34;;;;;;;9.15;8.85;;;9.00;99.90;;;;;;5023076;28;20025;-76
2022/12/26 00:58:00;;;;;;;9.40;9.10;;;9.00;99.90;;;;;;5021806;28;20460;-74
2022/12/26 01:00:25;;;;;;;10.95;10.55;;;9.00;99.90;;;;;;5026329;28;20038;-74
2022/12/26 01:02:51;;;;;;;9.70;9.40;;;9.00;99.90;;;;;;5028584;28;20104;-74
2022/12/26 01:05:16;;;;;;;8.40;8.10;;;9.00;99.90;;;;;;5023971;28;20021;-75
2022/12/26 01:07:42;;;;;;;8.02;7.72;;;9.00;99.90;;;;;;5019427;28;20022;-74
2022/12/26 01:10:11;;;;;;;8.00;7.70;;;9.00;99.90;;;;;;5014266;28;20021;-74
2022/12/26 01:12:36;;;;;;;8.40;8.10;;;9.00;99.90;;;;;;5014936;28;20022;-73
2022/12/26 01:15:04;;;;;;;8.48;8.18;;;8.90;99.90;;;;;;5014971;28;20026;-73
2022/12/26 01:17:30;;;;;;;8.82;8.52;;;9.00;99.90;;;;;;5028112;28;20522;-74
2022/12/26 01:19:55;;;;;;;8.75;8.45;;;9.00;99.90;;;;;;5014976;28;20034;-74
2022/12/26 01:22:23;;;;;;;8.10;7.80;;;9.00;99.90;;;;;;5014932;28;20037;-73
2022/12/26 01:24:48;;;;;;;7.60;7.30;;;9.00;99.90;;;;;;5024380;28;20049;-73
2022/12/26 01:27:14;;;;;;;8.25;7.95;;;9.00;99.90;;;;;;5019743;28;20064;-73
2022/12/26 01:29:39;;;;;;;7.45;7.18;;;9.10;99.90;;;;;;5033267;28;20403;-73
2022/12/26 01:32:05;;;;;;;7.40;7.10;;;9.10;99.90;;;;;;5039239;28;20486;-73
2022/12/26 01:34:31;;;;;;;6.70;6.50;;;9.10;99.90;;;;;;5014726;28;20076;-73
2022/12/26 01:36:56;;;;;;;6.82;6.63;;;9.00;99.90;;;;;;5014405;28;20463;-73
2022/12/26 01:39:22;;;;;;;6.95;6.75;;;9.00;99.90;;;;;;5023625;28;20025;-73
2022/12/26 01:41:48;;;;;;;7.75;7.45;;;8.90;99.90;;;;;;5018493;28;20100;-73
2022/12/26 01:44:53;;;;;;;6.60;6.40;;;9.20;99.90;;;;;;5014532;28;20068;-72
2022/12/26 01:47:21;;;;;;;6.78;6.57;;;8.90;99.90;;;;;;5021959;28;20036;-73
2022/12/26 01:49:51;;;;;;;6.78;6.53;;;8.90;99.90;;;;;;5020887;28;20018;-73
2022/12/26 01:52:29;;;;;;;6.28;6.07;;;8.90;99.90;;;;;;5024305;28;20065;-72
2022/12/26 01:54:55;;;;;;;9.27;6.97;;;8.80;99.90;;;;;;5027564;28;20096;-73
2022/12/26 01:57:33;;;;;;;6.05;5.85;;;8.70;99.90;;;;;;5024764;28;20183;-73
2022/12/26 02:00:01;;;;;;;6.78;6.57;;;8.70;99.90;;;;;;5020836;28;20017;-73
2022/12/26 02:02:29;;;;;;;5.78;5.57;;;8.70;99.90;;;;;;5021668;28;20033;-73
2022/12/26 02:07:44;;;;;;;6.18;5.97;;;8.90;99.90;;;;;;5016145;28;20176;-74
2022/12/26 02:10:20;;;;;;;6.40;6.20;;;8.90;99.90;;;;;;5024770;28;20033;-73
2022/12/26 02:12:47;;;;;;;5.47;5.28;;;8.90;99.90;;;;;;5026084;28;20113;-74
2022/12/26 02:15:15;;;;;;;5.50;5.30;;;8.90;99.90;;;;;;5024554;28;20107;-73
2022/12/26 02:17:42;;;;;;;5.70;5.50;;;8.90;99.90;;;;;;5020317;28;20068;-73
2022/12/26 02:20:13;;;;;;;4.70;4.57;;;8.90;99.90;;;;;;5022663;28;20030;-73
2022/12/26 02:23:18;;;;;;;5.03;4.82;;;9.00;99.90;;;;;;5027150;28;20149;-72
2022/12/26 02:26:21;;;;;;;4.43;4.32;;;9.00;99.90;;;;;;5017551;28;20057;-72
2022/12/26 02:29:04;;;;;;;5.93;5.72;;;8.90;99.90;;;;;;5019992;28;20484;-73
2022/12/26 02:31:44;;;;;;;5.88;5.68;;;8.90;99.90;;;;;;5033945;28;20100;-74
2022/12/26 02:34:18;;;;;;;4.88;4.68;;;8.90;99.90;;;;;;5013849;28;20523;-73
2022/12/26 02:37:26;;;;;;;5.00;4.82;;;8.90;99.90;;;;;;5013667;28;20380;-74
2022/12/26 02:40:11;;;;;;;4.80;4.70;;;9.00;99.90;;;;;;5000623;28;20033;-74
2022/12/26 02:43:05;;;;;;;4.55;4.45;;;9.00;99.90;;;;;;5020624;28;20037;-74
2022/12/26 02:49:11;;;;;;;4.65;4.55;;;9.00;99.90;;;;;;5026344;28;20060;-75
2022/12/26 03:15:15;;;;;;;4.13;4.03;;;9.10;99.90;;;;;;5022840;28;20411;-74
2022/12/26 03:17:51;;;;;;;3.60;3.50;;;9.10;99.90;;;;;;5032283;28;20029;-74
2022/12/26 03:20:24;;;;;;;3.80;3.70;;;9.10;99.90;;;;;;5032573;28;20049;-75
2022/12/26 03:22:56;;;;;;;3.75;3.65;;;9.10;99.90;;;;;;5032336;28;20241;-75
2022/12/26 03:28:21;;;;;;;3.83;3.72;;;9.20;99.90;;;;;;5012318;28;20037;-74
2022/12/26 03:30:49;;;;;;;3.25;3.15;;;9.20;99.90;;;;;;5012588;28;20049;-75
2022/12/26 03:36:41;;;;;;;3.60;3.50;;;9.20;99.90;;;;;;5023993;28;20091;-75
2022/12/26 04:19:25;;;;;;;4.30;4.15;;;9.10;99.90;;;;;;5012019;28;20056;-75
2022/12/26 04:44:43;;;;;;;2.60;2.50;;;9.10;99.90;;;;;;5018804;28;20092;-75
2022/12/26 04:47:09;;;;;;;2.70;2.60;;;9.00;99.90;;;;;;5030752;28;20038;-75
2022/12/26 04:52:53;;;;;;;2.50;2.40;;;9.10;99.90;;;;;;5031556;28;20033;-74
2022/12/26 04:55:13;;;;;;;2.58;2.47;;;9.00;99.90;;;;;;5031199;28;20064;-74
2022/12/26 04:57:40;;;;;;;2.40;2.30;;;9.10;99.90;;;;;;5031433;28;20037;-74
2022/12/26 05:00:06;;;;;;;2.30;2.20;;;9.20;99.90;;;;;;5025865;28;20504;-74
2022/12/26 05:10:44;;;;;;;2.88;2.78;;;9.10;99.90;;;;;;5031256;28;20534;-73
2022/12/26 05:13:09;;;;;;;2.60;2.50;;;9.00;99.90;;;;;;5031077;28;20030;-74
2022/12/26 05:28:40;;;;;;;3.03;2.92;;;9.00;99.90;;;;;;5018301;28;20022;-74
2022/12/26 05:29:26;;;;;;;2.80;2.70;;;9.00;99.90;;;;;;5035437;28;20068;-75
2022/12/26 05:31:52;;;;;;;2.80;2.70;;;8.90;99.90;;;;;;5049962;28;20036;-75
2022/12/26 05:34:20;;;;;;;3.15;3.05;;;8.90;99.90;;;;;;5034435;28;20041;-74
2022/12/26 05:36:50;;;;;;;2.85;2.75;;;8.90;99.90;;;;;;5035564;28;20038;-74
2022/12/26 05:39:16;;;;;;;2.72;2.63;;;8.80;99.90;;;;;;5016167;28;20029;-75
2022/12/26 05:41:41;;;;;;;2.50;2.40;;;8.80;99.90;;;;;;5015549;28;20108;-75
2022/12/26 05:44:08;;;;;;;2.70;2.60;;;8.90;99.90;;;;;;5024159;28;20449;-74
2022/12/26 05:46:34;;;;;;;2.50;2.40;;;8.80;99.90;;;;;;5034068;28;20021;-73
2022/12/26 05:48:59;;;;;;;2.65;2.55;;;8.80;99.90;;;;;;5034970;28;20025;-74
2022/12/26 05:51:25;;;;;;;2.60;2.50;;;8.90;99.90;;;;;;5035015;28;20030;-74
2022/12/26 05:53:51;;;;;;;2.70;2.60;;;8.90;99.90;;;;;;5033982;28;20029;-74
2022/12/26 05:56:17;;;;;;;2.63;2.53;;;8.90;99.90;;;;;;5034725;28;20045;-74
2022/12/26 05:58:43;;;;;;;2.97;2.88;;;8.90;99.90;;;;;;5034363;28;20096;-75
2022/12/26 06:01:10;;;;;;;2.60;2.50;;;8.90;99.90;;;;;;5019041;28;20025;-75
2022/12/26 06:03:36;;;;;;;2.50;2.40;;;8.90;99.90;;;;;;5014653;28;20508;-73
2022/12/26 06:06:03;;;;;;;2.63;2.53;;;8.90;99.90;;;;;;5014520;28;20021;-74
2022/12/26 06:08:29;;;;;;;2.40;2.30;;;8.90;99.90;;;;;;5013859;28;20480;-74
2022/12/26 06:10:54;;;;;;;2.60;2.50;;;8.90;99.90;;;;;;5014132;28;20026;-75
2022/12/26 06:13:20;;;;;;;2.20;2.10;;;8.90;99.90;;;;;;5014207;28;20038;-75
2022/12/26 06:15:45;;;;;;;2.75;2.65;;;8.90;99.90;;;;;;5014698;28;20052;-74
2022/12/26 06:18:11;;;;;;;3.72;3.53;;;9.00;99.90;;;;;;5030273;28;20036;-74
2022/12/26 06:20:40;;;;;;;2.60;2.50;;;9.00;99.90;;;;;;5026952;28;20083;-74
2022/12/26 06:23:05;;;;;;;3.97;2.50;;;9.00;99.90;;;;;;5022683;28;20500;-74
2022/12/26 06:25:31;;;;;;;1.80;1.80;;;9.00;99.90;;;;;;5030398;28;20033;-74
2022/12/26 06:27:57;;;;;;;1.90;1.90;;;9.10;99.90;;;;;;5025420;28;20422;-74
2022/12/26 06:30:22;;;;;;;1.83;1.83;;;9.10;99.90;;;;;;5025354;28;20041;-75
2022/12/26 06:32:48;;;;;;;3.80;2.85;;;9.10;99.90;;;;;;5027976;28;20037;-74
2022/12/26 06:35:14;;;;;;;2.17;2.08;;;9.00;99.90;;;;;;5030653;28;20052;-74
2022/12/26 06:37:39;;;;;;;2.67;2.58;;;9.00;99.90;;;;;;5025831;28;20037;-74
2022/12/26 06:40:06;;;;;;;2.20;2.10;;;9.00;99.90;;;;;;5022901;28;20026;-74
2022/12/26 06:42:31;;;;;;;2.53;2.42;;;8.90;99.90;;;;;;5023232;28;20407;-74
2022/12/26 06:44:57;;;;;;;2.00;2.00;;;8.90;99.90;;;;;;5029266;28;20037;-74
2022/12/26 06:47:22;;;;;;;2.65;2.55;;;8.90;99.90;;;;;;5020840;28;20073;-74
2022/12/26 06:49:48;;;;;;;1.85;1.85;;;8.90;99.90;;;;;;5018390;28;20076;-75
2022/12/26 06:52:13;;;;;;;2.20;2.10;;;9.00;99.90;;;;;;5014179;28;20029;-74
2022/12/26 06:54:39;;;;;;;1.80;1.80;;;9.10;99.90;;;;;;5020915;28;20021;-74
2022/12/26 06:57:05;;;;;;;1.90;1.90;;;9.00;99.90;;;;;;5019392;28;20053;-74
2022/12/26 06:59:31;;;;;;;2.08;2.08;;;9.00;99.90;;;;;;5026787;28;20057;-74
2022/12/26 07:01:56;;;;;;;2.00;2.00;;;9.00;99.90;;;;;;5022744;28;20030;-75
2022/12/26 07:04:22;;;;;;;2.47;2.38;;;8.90;99.90;;;;;;5025322;28;20022;-74
2022/12/26 07:06:47;;;;;;;2.00;2.00;;;8.90;99.90;;;;;;5019829;28;20034;-73
2022/12/26 07:09:15;;;;;;;2.40;2.30;;;9.00;99.90;;;;;;5029836;28;20104;-74
2022/12/26 07:11:46;;;;;;;2.30;2.20;;;9.00;99.90;;;;;;5023836;28;20029;-74
2022/12/26 07:14:13;;;;;;;1.80;1.80;;;9.00;99.90;;;;;;5026940;28;20476;-74
2022/12/26 07:16:40;;;;;;;1.90;1.90;;;9.00;99.90;;;;;;5022883;28;20113;-74
2022/12/26 07:19:06;;;;;;;1.95;1.95;;;9.00;99.90;;;;;;5029134;28;20104;-74
2022/12/26 07:21:33;;;;;;;2.22;2.13;;;9.00;99.90;;;;;;5022390;28;20375;-74
2022/12/26 07:23:59;;;;;;;2.03;1.95;;;9.10;99.90;;;;;;5030330;28;20036;-74
2022/12/26 07:26:25;;;;;;;1.75;1.75;;;9.10;99.90;;;;;;5023598;28;20026;-74
2022/12/26 07:28:58;;;;;;;1.88;1.88;;;9.20;99.90;;;;;;5025039;28;20052;-74
2022/12/26 07:31:26;;;;;;;1.80;1.80;;;9.20;99.90;;;;;;5022719;28;20017;-75
2022/12/26 07:33:54;;;;;;;1.70;1.70;;;9.20;99.90;;;;;;5031491;28;20026;-75
2022/12/26 07:36:20;;;;;;;1.90;1.90;;;9.30;99.90;;;;;;5021372;28;20025;-76
2022/12/26 07:38:46;;;;;;;1.90;1.90;;;9.30;99.90;;;;;;5016947;28;20025;-76
2022/12/26 07:43:57;;;;;;;2.25;2.15;;;9.30;99.90;;;;;;5025780;28;20441;-76
2022/12/26 07:46:22;;;;;;;1.90;1.90;;;9.30;99.90;;;;;;5024864;28;20100;-77
2022/12/26 07:48:48;;;;;;;1.80;1.80;;;9.40;99.90;;;;;;5020946;28;20032;-75
2022/12/26 07:51:13;;;;;;;2.00;2.00;;;9.30;99.90;;;;;;5018377;28;20113;-76
2022/12/26 07:53:39;;;;;;;2.38;2.28;;;9.30;99.90;;;;;;5025205;28;20022;-76
2022/12/26 07:56:05;;;;;;;2.13;2.10;;;9.30;99.90;;;;;;5024720;28;20029;-76
2022/12/26 07:58:31;;;;;;;1.90;1.90;;;9.40;99.90;;;;;;5018093;28;20029;-76
2022/12/26 08:01:00;;;;;;;1.90;1.90;;;9.40;99.90;;;;;;5018109;28;20084;-76
2022/12/26 08:03:26;;;;;;;1.88;1.88;;;9.40;99.90;;;;;;5025286;28;20026;-76
2022/12/26 08:05:52;;;;;;;2.00;2.00;;;9.40;99.90;;;;;;5012011;28;20884;-76
2022/12/26 08:08:17;;;;;;;2.08;2.08;;;9.40;99.90;;;;;;5016399;28;20037;-76
2022/12/26 08:10:43;;;;;;;2.00;2.00;;;9.40;99.90;;;;;;5017210;28;20022;-76
2022/12/26 08:13:08;;;;;;;5.15;4.93;;;9.40;99.90;;;;;;5016735;28;20017;-76
2022/12/26 08:15:36;;;;;;;2.10;2.10;;;9.40;99.90;;;;;;5018840;28;20022;-76
2022/12/26 08:18:02;;;;;;;2.05;2.05;;;9.40;99.90;;;;;;5016434;28;20025;-76
2022/12/26 08:20:27;;;;;;;2.22;2.15;;;9.40;99.90;;;;;;5031614;28;20032;-76
2022/12/26 08:22:53;;;;;;;2.38;2.28;;;9.40;99.90;;;;;;5023673;28;20076;-76
2022/12/26 08:25:18;;;;;;;2.42;2.33;;;9.40;99.90;;;;;;5012141;28;20030;-76
2022/12/26 08:27:44;;;;;;;2.30;2.20;;;9.30;99.90;;;;;;5023859;28;20026;-76
2022/12/26 08:30:10;;;;;;;2.30;2.20;;;9.40;99.90;;;;;;5024913;28;20021;-76
2022/12/26 08:32:35;;;;;;;2.30;2.20;;;9.40;99.90;;;;;;5018363;28;20030;-76
2022/12/26 08:35:02;;;;;;;2.30;2.20;;;9.30;99.90;;;;;;5016935;28;20028;-76
2022/12/26 08:37:27;;;;;;;2.80;2.70;;;9.30;99.90;;;;;;5024114;28;20117;-76
2022/12/26 08:39:53;;;;;;;2.50;2.40;;;9.30;99.90;;;;;;5024883;28;20104;-76
2022/12/26 08:42:20;;;;;;;2.50;2.40;;;9.20;99.90;;;;;;5018361;28;20398;-76
2022/12/26 08:44:45;;;;;;;3.08;2.95;;;9.20;99.90;;;;;;5021864;28;20075;-76
2022/12/26 08:47:12;;;;;;;2.53;2.42;;;9.20;99.90;;;;;;5023791;28;20042;-76
2022/12/26 08:49:37;;;;;;;2.70;2.60;;;9.20;99.90;;;;;;5025169;28;20032;-76
2022/12/26 08:52:03;;;;;;;2.60;2.50;;;9.20;99.90;;;;;;5022944;28;20022;-76
2022/12/26 08:54:29;;;;;;;2.60;2.50;;;9.30;99.90;;;;;;5024649;28;20022;-76
2022/12/26 08:56:54;;;;;;;2.60;2.50;;;9.20;99.90;;;;;;5017696;28;20108;-77
2022/12/26 08:59:20;;;;;;;3.00;2.80;;;9.20;99.90;;;;;;5021604;28;20045;-76
2022/12/26 09:01:45;;;;;;;2.50;2.40;;;9.20;99.90;;;;;;5027965;28;20030;-76
2022/12/26 09:04:11;;;;;;;3.17;3.08;;;9.20;99.90;;;;;;5028533;28;20096;-77
2022/12/26 09:06:38;;;;;;;3.30;3.20;;;9.20;99.90;;;;;;5020913;28;20060;-76
2022/12/26 09:09:05;;;;;;;2.97;2.88;;;9.20;99.90;;;;;;5021308;28;20030;-76
2022/12/26 09:11:31;;;;;;;4.57;4.38;;;9.20;99.90;;;;;;5033716;28;20032;-76
2022/12/26 09:13:59;;;;;;;2.97;2.88;;;9.20;99.90;;;;;;5033609;28;20017;-76
2022/12/26 09:16:31;;;;;;;3.10;3.00;;;9.30;99.90;;;;;;5023197;28;20031;-77
2022/12/26 09:18:59;;;;;;;3.20;3.10;;;9.20;99.90;;;;;;5019821;28;20121;-77
2022/12/26 09:21:25;;;;;;;3.20;3.10;;;9.30;99.90;;;;;;5026104;28;20503;-77
2022/12/26 09:24:05;;;;;;;3.30;3.20;;;9.40;99.90;;;;;;5015678;28;20056;-76
2022/12/26 09:26:32;;;;;;;3.50;3.40;;;9.30;99.90;;;;;;5025213;28;20026;-77
2022/12/26 09:28:58;;;;;;;3.75;3.65;;;9.40;99.90;;;;;;5020835;28;20022;-77
2022/12/26 09:31:29;;;;;;;3.80;3.70;;;9.40;99.90;;;;;;5024299;28;20361;-77
2022/12/26 09:33:54;;;;;;;3.60;3.50;;;9.40;99.90;;;;;;5028096;28;20022;-77
2022/12/26 09:36:25;;;;;;;4.35;4.25;;;9.40;99.90;;;;;;5025902;28;20022;-76
2022/12/26 09:38:51;;;;;;;3.70;3.60;;;9.40;99.90;;;;;;5029063;28;20037;-76
2022/12/26 09:41:38;;;;;;;4.40;4.30;;;9.40;99.90;;;;;;5026373;28;20041;-76
2022/12/26 09:44:41;;;;;;;4.40;4.30;;;9.40;99.90;;;;;;5022329;28;20037;-77
2022/12/26 09:47:48;;;;;;;5.10;4.90;;;9.40;99.90;;;;;;5020715;28;20057;-77
2022/12/26 09:50:24;;;;;;;5.15;4.95;;;9.40;99.90;;;;;;5022811;28;20037;-77
2022/12/26 09:53:01;;;;;;;7.82;7.53;;;9.50;99.90;;;;;;5022101;28;20026;-78
2022/12/26 09:55:35;;;;;;;5.53;5.32;;;9.50;99.90;;;;;;5022295;28;20088;-77
2022/12/26 09:58:20;;;;;;;6.20;6.00;;;9.40;99.90;;;;;;5019984;28;20026;-77
2022/12/26 10:01:00;;;;;;;7.50;7.20;;;9.50;99.90;;;;;;5023148;28;20432;-76
2022/12/26 10:03:26;;;;;;;7.65;6.93;;;9.40;99.90;;;;;;5012901;28;20026;-76
2022/12/26 10:06:10;;;;;;;6.82;6.63;;;9.40;99.90;;;;;;5025687;28;20098;-76
2022/12/26 10:09:01;;;;;;;6.75;6.43;;;9.40;99.90;;;;;;5013400;28;20032;-76
2022/12/26 10:12:17;;;;;;;8.13;7.82;;;9.40;99.90;;;;;;5027206;28;20026;-76
2022/12/26 10:15:21;;;;;;;7.80;7.50;;;9.40;99.90;;;;;;4998628;28;20056;-76
2022/12/26 10:18:05;;;;;;;7.75;7.45;;;9.40;99.90;;;;;;5010511;28;20034;-76
2022/12/26 10:20:37;;;;;;;7.10;6.90;;;9.40;99.90;;;;;;5019420;28;20518;-76
2022/12/26 10:23:21;;;;;;;8.55;8.25;;;9.40;99.90;;;;;;5019651;28;20446;-76
2022/12/26 10:26:12;;;;;;;9.73;9.32;;;9.40;99.90;;;;;;5014996;28;20026;-76
2022/12/26 10:29:22;;;;;;;8.55;8.25;;;9.40;99.90;;;;;;5017069;28;20038;-76
2022/12/26 10:32:01;;;;;;;8.52;8.13;;;9.40;99.90;;;;;;5021222;28;20392;-77
2022/12/26 10:34:39;;;;;;;8.50;8.20;;;9.40;99.90;;;;;;5021248;28;20062;-77
2022/12/26 10:37:31;;;;;;;11.60;11.20;;;9.40;99.90;;;;;;5019479;28;20033;-76
2022/12/26 10:39:58;;;;;;;10.32;9.93;;;9.50;99.90;;;;;;5020238;28;20044;-77
2022/12/26 10:42:35;;;;;;;10.65;10.25;;;9.50;99.90;;;;;;5023909;28;20080;-77
2022/12/26 10:45:11;;;;;;;11.45;11.05;;;9.50;99.90;;;;;;5025399;28;20057;-75
2022/12/26 10:47:38;;;;;;;;;;;9.50;99.90;;;;;;5025528;28;20114;-76
2022/12/26 10:50:05;;;;;;;10.95;10.55;;;9.50;99.90;;;;;;5019944;28;19910;-77
2022/12/26 10:52:37;;;;;;;13.60;13.00;;;9.50;99.90;;;;;;5027817;28;20025;-76
2022/12/26 10:55:04;;;;;;;11.13;10.73;;;9.50;99.90;;;;;;5022861;28;20507;-75
2022/12/26 10:57:34;;;;;;;11.07;10.68;;;9.50;99.90;;;;;;5028642;28;20029;-75
2022/12/26 11:00:03;;;;;;;13.18;12.68;;;9.50;99.90;;;;;;5032130;28;20033;-76
2022/12/26 11:02:31;;;;;;;11.98;11.57;;;9.50;99.90;;;;;;5037179;28;20032;-75
2022/12/26 11:05:12;;;;;;;13.82;13.32;;;9.50;99.90;;;;;;5021554;28;20057;-75
2022/12/26 11:07:49;;;;;;;15.15;14.55;;;9.50;99.90;;;;;;5012982;28;20030;-75
2022/12/26 11:10:20;;;;;;;18.27;17.50;;;9.50;99.90;;;;;;5013073;28;20482;-75
2022/12/26 11:12:50;;;;;;;19.90;19.13;;;9.60;99.90;;;;;;5024408;28;20499;-75
2022/12/26 11:15:21;;;;;;;15.25;14.70;;;9.60;99.90;;;;;;5023652;28;20120;-75
2022/12/26 11:17:49;;;;;;;15.48;14.90;;;9.50;99.90;;;;;;5027143;28;20030;-76
2022/12/26 11:20:15;;;;;;;14.40;13.90;;;9.50;99.90;;;;;;5012920;28;20018;-75
2022/12/26 11:22:45;;;;;;;15.38;14.77;;;9.50;99.90;;;;;;5020714;28;20037;-75
2022/12/26 11:25:14;;;;;;;18.17;17.48;;;9.80;99.90;;;;;;5019645;28;20022;-75
2022/12/26 11:27:42;;;;;;;17.17;16.55;;;9.50;99.90;;;;;;5019329;28;20400;-75
2022/12/26 11:30:20;;;;;;;17.60;16.80;;;9.60;99.90;;;;;;5020738;28;20034;-75
2022/12/26 11:32:49;;;;;;;16.30;15.70;;;9.60;99.90;;;;;;5025302;28;20025;-75
2022/12/26 11:35:25;;;;;;;17.10;16.45;;;9.50;99.90;;;;;;5019682;28;20019;-75
2022/12/26 11:37:56;;;;;;;17.27;16.67;;;9.60;99.90;;;;;;5019829;28;20030;-74
2022/12/26 11:40:28;;;;;;;17.60;17.00;;;9.60;99.90;;;;;;5021147;28;20053;-75
2022/12/26 11:42:59;;;;;;;21.50;20.63;;;9.60;99.90;;;;;;5020089;28;20030;-75
2022/12/26 11:45:28;;;;;;;18.60;17.90;;;9.70;99.90;;;;;;5024030;28;20394;-74
2022/12/26 11:47:55;;;;;;;22.13;21.33;;;9.60;99.90;;;;;;5019957;28;20052;-75
2022/12/26 11:50:25;;;;;;;18.88;18.17;;;9.60;99.90;;;;;;5018076;28;20803;-75
2022/12/26 11:52:57;;;;;;;22.77;21.92;;;9.70;99.90;;;;;;5018635;28;20028;-74
2022/12/26 11:55:22;;;;;;;19.38;18.67;;;9.70;99.90;;;;;;5017688;28;20028;-74
2022/12/26 11:58:08;;;;;;;19.27;18.58;;;9.70;99.90;;;;;;5019430;28;20029;-75
2022/12/26 12:00:38;;;;;;;18.48;17.77;;;9.70;99.90;;;;;;5023893;28;20024;-75
2022/12/26 12:03:10;;;;;;;23.77;22.88;;;9.70;99.90;;;;;;5020331;28;20755;-75
2022/12/26 12:05:53;;;;;;;20.77;19.98;;;9.70;99.90;;;;;;5024053;28;20018;-76
2022/12/26 12:08:34;;;;;;;24.83;23.92;;;9.70;99.90;;;;;;5023780;28;20026;-75
2022/12/26 12:11:26;;;;;;;20.92;20.13;;;9.70;99.90;;;;;;5025552;28;20021;-75
2022/12/26 12:14:05;;;;;;;22.38;21.58;;;9.70;99.90;;;;;;5019923;28;20026;-75
2022/12/26 12:16:42;;;;;;;26.10;25.10;;;9.80;99.90;;;;;;5014398;28;20029;-75
2022/12/26 12:19:15;;;;;;;21.95;21.15;;;9.80;99.90;;;;;;5021452;28;20053;-75
2022/12/26 12:21:40;;;;;;;22.05;21.25;;;9.80;99.90;;;;;;5032748;28;20029;-76
2022/12/26 12:24:26;;;;;;;27.98;26.85;;;9.80;99.90;;;;;;5020540;28;20403;-76
2022/12/26 12:27:04;;;;;;;20.67;19.90;;;9.80;99.90;;;;;;5018139;28;20053;-75
2022/12/26 12:29:47;;;;;;;21.95;21.15;;;9.80;99.90;;;;;;5016658;28;20295;-75
2022/12/26 12:32:24;;;;;;;21.20;20.40;;;9.80;99.90;;;;;;5022103;28;20104;-75
2022/12/26 12:35:26;;;;;;;22.63;21.83;;;9.80;99.90;;;;;;5022853;28;20065;-75
2022/12/26 12:38:26;;;;;;;21.30;20.50;;;9.70;99.90;;;;;;5024747;28;20036;-75
2022/12/26 12:40:57;;;;;;;22.95;22.13;;;9.70;99.90;;;;;;5015413;28;20113;-75
2022/12/26 12:43:29;;;;;;;22.33;21.42;;;9.70;99.90;;;;;;5030588;28;20026;-75
2022/12/26 12:46:24;;;;;;;23.20;22.30;;;9.60;99.90;;;;;;5024388;28;20026;-75
2022/12/26 12:48:49;;;;;;;23.35;22.45;;;9.60;99.90;;;;;;5033735;28;20077;-75
2022/12/26 12:51:33;;;;;;;23.60;22.70;;;9.60;99.90;;;;;;5026169;28;20673;-75
2022/12/26 12:54:05;;;;;;;22.55;21.65;;;9.60;99.90;;;;;;5035310;28;20021;-75
2022/12/26 12:57:07;;;;;;;24.08;23.17;;;9.60;99.90;;;;;;5021781;28;20033;-76
2022/12/26 13:00:12;;;;;;;27.67;26.60;;;9.60;99.90;;;;;;5021627;28;20030;-75
2022/12/26 13:02:51;;;;;;;22.23;21.42;;;9.70;99.90;;;;;;5027488;28;20017;-76
2022/12/26 13:05:21;;;;;;;22.70;21.90;;;9.60;99.90;;;;;;5023287;28;20543;-75
2022/12/26 13:07:56;;;;;;;22.48;21.67;;;9.60;99.90;;;;;;5030175;28;20034;-75
2022/12/26 13:10:29;;;;;;;24.37;23.47;;;9.60;99.90;;;;;;5022298;28;20025;-75
2022/12/26 13:12:56;;;;;;;20.92;20.13;;;9.50;99.90;;;;;;5025642;28;20562;-75
2022/12/26 13:15:41;;;;;;;21.48;20.67;;;9.60;99.90;;;;;;5014827;28;20033;-75
2022/12/26 13:18:19;;;;;;;22.73;21.92;;;9.60;99.90;;;;;;5015510;28;20101;-74
2022/12/26 13:20:57;;;;;;;20.90;20.10;;;9.60;99.90;;;;;;5014343;28;20026;-74
2022/12/26 13:26:31;;;;;;;24.85;23.83;;;9.50;99.90;;;;;;5019988;28;20083;-74
2022/12/26 13:29:03;;;;;;;21.98;21.17;;;9.50;99.90;;;;;;5021713;28;20018;-74
2022/12/26 13:31:34;;;;;;;32.30;31.00;;;9.50;99.90;;;;;;5019250;28;20038;-74
2022/12/26 13:34:01;;;;;;;22.40;21.60;;;9.50;99.90;;;;;;5016938;28;20025;-74
2022/12/26 13:36:46;;;;;;;21.67;20.88;;;9.50;99.90;;;;;;5018106;28;20022;-74
2022/12/26 13:39:24;;;;;;;24.23;23.33;;;9.50;99.90;;;;;;5019549;28;20030;-74
2022/12/26 13:45:41;;;;;;;24.60;23.60;;;9.60;99.90;;;;;;4983306;28;20108;-74
2022/12/26 13:48:16;;;;;;;21.20;20.40;;;9.60;99.90;;;;;;5018764;28;20037;-74
2022/12/26 13:50:48;;;;;;;23.00;22.10;;;9.60;99.90;;;;;;5013955;28;20025;-74
2022/12/26 13:53:37;;;;;;;28.67;27.55;;;9.60;99.90;;;;;;5021291;28;20380;-74
2022/12/26 13:56:16;;;;;;;23.73;22.83;;;9.60;99.90;;;;;;5018403;28;20494;-74
2022/12/26 13:59:06;;;;;;;23.70;22.80;;;9.60;99.90;;;;;;5019828;28;20708;-74
2022/12/26 14:02:11;;;;;;;29.83;28.52;;;9.70;99.90;;;;;;5025025;28;20467;-73
2022/12/26 14:04:48;;;;;;;22.58;21.77;;;9.70;99.90;;;;;;5015919;28;20436;-74
2022/12/26 14:07:22;;;;;;;18.70;18.00;;;9.70;99.90;;;;;;5024100;28;20100;-73
2022/12/26 14:10:03;;;;;;;20.77;19.98;;;9.60;99.90;;;;;;5017396;28;20407;-75
2022/12/26 14:12:41;;;;;;;21.83;21.02;;;9.60;99.90;;;;;;5017654;28;20781;-76
2022/12/26 14:15:41;;;;;;;21.88;21.08;;;9.60;99.90;;;;;;5024908;28;20029;-75
2022/12/26 14:18:48;;;;;;;24.77;23.77;;;9.50;99.90;;;;;;4926221;29;20055;-75
2022/12/26 14:21:44;;;;;;;20.17;19.48;;;9.60;99.90;;;;;;5011788;28;20454;-74
2022/12/26 14:24:34;;;;;;;21.77;20.98;;;9.50;99.90;;;;;;5026309;28;20025;-74
2022/12/26 14:27:26;;;;;;;20.83;20.02;;;9.50;99.90;;;;;;5016701;28;20357;-74
2022/12/26 14:30:05;;;;;;;19.58;18.88;;;9.50;99.90;;;;;;5011812;28;20030;-74
2022/12/26 14:32:46;;;;;;;28.45;27.33;;;9.60;99.90;;;;;;5027069;28;20117;-74
2022/12/26 14:35:31;;;;;;;31.55;30.20;;;9.60;99.90;;;;;;5027992;28;20026;-74
2022/12/26 14:38:03;;;;;;;23.88;22.98;;;9.60;99.90;;;;;;5033250;28;20027;-75
2022/12/26 14:40:35;;;;;;;19.02;18.33;;;9.50;99.90;;;;;;5032165;28;20022;-74
2022/12/26 14:43:15;;;;;;;19.65;18.95;;;9.40;99.90;;;;;;5033093;28;20033;-74
2022/12/26 14:45:51;;;;;;;18.58;17.88;;;9.60;99.90;;;;;;5033259;28;20567;-74
2022/12/26 14:48:17;;;;;;;19.50;18.80;;;9.50;99.90;;;;;;5031562;28;20067;-74
2022/12/26 14:50:54;;;;;;;19.80;19.10;;;9.40;99.90;;;;;;5033151;28;20403;-74
2022/12/26 14:53:28;;;;;;;18.52;17.83;;;9.40;99.90;;;;;;5033019;28;20032;-73
2022/12/26 14:56:01;;;;;;;22.02;21.02;;;9.40;99.90;;;;;;5032191;28;20033;-74
2022/12/26 14:58:44;;;;;;;18.73;18.02;;;9.40;99.90;;;;;;5019478;28;20538;-74
2022/12/26 15:01:19;;;;;;;19.85;19.05;;;9.40;99.90;;;;;;5019655;28;20030;-74
2022/12/26 15:04:22;;;;;;;18.73;18.02;;;9.40;99.90;;;;;;5032779;28;20495;-74
2022/12/26 15:07:06;;;;;;;18.35;17.65;;;9.30;99.90;;;;;;5032660;28;20121;-74
2022/12/26 15:09:52;;;;;;;18.70;18.00;;;9.30;99.90;;;;;;5032740;28;20233;-73
2022/12/26 15:12:27;;;;;;;17.98;17.27;;;9.30;99.90;;;;;;5031388;28;20032;-74
2022/12/26 15:15:27;;;;;;;18.95;18.25;;;9.20;99.90;;;;;;5032702;28;20431;-74
2022/12/26 15:18:19;;;;;;;17.88;17.17;;;9.20;99.90;;;;;;4998767;28;20052;-75
2022/12/26 15:21:09;;;;;;;18.40;17.70;;;9.30;99.90;;;;;;5001354;28;20061;-77
2022/12/26 15:24:12;;;;;;;22.48;21.58;;;9.20;99.90;;;;;;5033913;28;20021;-78
2022/12/26 15:27:19;;;;;;;17.58;16.83;;;9.20;99.90;;;;;;5014096;28;20033;-74
2022/12/26 15:29:54;;;;;;;;;;;9.20;99.90;;;;;;4984461;28;20440;-75
2022/12/26 15:32:40;;;;;;;17.10;16.50;;;9.20;99.90;;;;;;5032395;28;19905;-75